sensor_id;sensor_type;location;lat;lon;timestamp;P1;durP1;ratioP1;P2;durP2;ratioP2
9372;SDS011;10838;52.350;9.790;2023-05-23T00:01:38;15.57;;;13.97;;
9372;SDS011;10838;52.350;9.790;2023-05-23T00:04:07;15.67;;;13.30;;
9372;SDS011;10838;52.350;9.790;2023-05-23T00:06:34;15.73;;;14.00;;
9372;SDS011;10838;52.350;9.790;2023-05-23T00:09:02;18.60;;;14.63;;
9372;SDS011;10838;52.350;9.790;2023-05-23T00:11:29;17.17;;;15.47;;
9372;SDS011;10838;52.350;9.790;2023-05-23T00:13:56;15.63;;;14.00;;
9372;SDS011;10838;52.350;9.790;2023-05-23T00:16:24;14.53;;;13.10;;
9372;SDS011;10838;52.350;9.790;2023-05-23T00:18:52;15.67;;;14.07;;
9372;SDS011;10838;52.350;9.790;2023-05-23T00:21:21;16.23;;;14.50;;
9372;SDS011;10838;52.350;9.790;2023-05-23T00:23:48;15.97;;;14.27;;
9372;SDS011;10838;52.350;9.790;2023-05-23T00:26:14;17.00;;;15.23;;
9372;SDS011;10838;52.350;9.790;2023-05-23T00:28:41;19.17;;;15.33;;
9372;SDS011;10838;52.350;9.790;2023-05-23T00:31:07;17.13;;;15.50;;
9372;SDS011;10838;52.350;9.790;2023-05-23T00:33:34;15.87;;;14.43;;
9372;SDS011;10838;52.350;9.790;2023-05-23T00:36:02;16.40;;;14.83;;
9372;SDS011;10838;52.350;9.790;2023-05-23T00:38:29;17.43;;;15.63;;
9372;SDS011;10838;52.350;9.790;2023-05-23T00:40:55;20.77;;;18.57;;
9372;SDS011;10838;52.350;9.790;2023-05-23T00:43:22;20.43;;;18.37;;
9372;SDS011;10838;52.350;9.790;2023-05-23T00:45:49;22.73;;;20.30;;
9372;SDS011;10838;52.350;9.790;2023-05-23T00:48:16;26.50;;;23.67;;
9372;SDS011;10838;52.350;9.790;2023-05-23T00:50:43;28.90;;;25.80;;
9372;SDS011;10838;52.350;9.790;2023-05-23T00:53:11;31.57;;;25.40;;
9372;SDS011;10838;52.350;9.790;2023-05-23T00:55:38;33.50;;;29.97;;
9372;SDS011;10838;52.350;9.790;2023-05-23T00:58:05;36.50;;;30.20;;
9372;SDS011;10838;52.350;9.790;2023-05-23T01:00:32;36.67;;;31.93;;
9372;SDS011;10838;52.350;9.790;2023-05-23T01:02:59;40.87;;;31.37;;
9372;SDS011;10838;52.350;9.790;2023-05-23T01:05:26;36.23;;;31.73;;
9372;SDS011;10838;52.350;9.790;2023-05-23T01:07:53;41.33;;;33.67;;
9372;SDS011;10838;52.350;9.790;2023-05-23T01:10:22;40.83;;;34.43;;
9372;SDS011;10838;52.350;9.790;2023-05-23T01:12:55;40.00;;;35.03;;
9372;SDS011;10838;52.350;9.790;2023-05-23T01:15:31;43.27;;;35.83;;
9372;SDS011;10838;52.350;9.790;2023-05-23T01:18:06;44.70;;;35.57;;
9372;SDS011;10838;52.350;9.790;2023-05-23T01:20:39;40.00;;;35.67;;
9372;SDS011;10838;52.350;9.790;2023-05-23T01:23:18;42.57;;;36.43;;
9372;SDS011;10838;52.350;9.790;2023-05-23T01:26:12;46.53;;;36.73;;
9372;SDS011;10838;52.350;9.790;2023-05-23T01:28:49;41.60;;;34.50;;
9372;SDS011;10838;52.350;9.790;2023-05-23T01:31:21;45.60;;;33.90;;
9372;SDS011;10838;52.350;9.790;2023-05-23T01:33:52;41.97;;;34.17;;
9372;SDS011;10838;52.350;9.790;2023-05-23T01:36:20;41.97;;;33.63;;
9372;SDS011;10838;52.350;9.790;2023-05-23T01:38:47;39.57;;;32.97;;
9372;SDS011;10838;52.350;9.790;2023-05-23T01:41:13;43.77;;;32.33;;
9372;SDS011;10838;52.350;9.790;2023-05-23T01:43:40;37.43;;;30.10;;
9372;SDS011;10838;52.350;9.790;2023-05-23T01:46:08;34.37;;;29.63;;
9372;SDS011;10838;52.350;9.790;2023-05-23T01:48:35;36.67;;;28.37;;
9372;SDS011;10838;52.350;9.790;2023-05-23T01:51:04;33.33;;;26.77;;
9372;SDS011;10838;52.350;9.790;2023-05-23T01:53:31;35.13;;;26.80;;
9372;SDS011;10838;52.350;9.790;2023-05-23T01:55:59;28.83;;;25.43;;
9372;SDS011;10838;52.350;9.790;2023-05-23T01:58:27;29.27;;;24.30;;
9372;SDS011;10838;52.350;9.790;2023-05-23T02:00:54;32.70;;;25.53;;
9372;SDS011;10838;52.350;9.790;2023-05-23T02:03:22;30.73;;;24.70;;
9372;SDS011;10838;52.350;9.790;2023-05-23T02:05:49;26.70;;;23.80;;
9372;SDS011;10838;52.350;9.790;2023-05-23T02:08:15;27.30;;;22.83;;
9372;SDS011;10838;52.350;9.790;2023-05-23T02:10:42;26.50;;;23.43;;
9372;SDS011;10838;52.350;9.790;2023-05-23T02:13:08;25.33;;;22.53;;
9372;SDS011;10838;52.350;9.790;2023-05-23T02:15:35;25.07;;;22.07;;
9372;SDS011;10838;52.350;9.790;2023-05-23T02:18:01;21.93;;;19.57;;
9372;SDS011;10838;52.350;9.790;2023-05-23T02:20:31;21.17;;;18.97;;
9372;SDS011;10838;52.350;9.790;2023-05-23T02:22:58;20.93;;;17.63;;
9372;SDS011;10838;52.350;9.790;2023-05-23T02:25:24;20.03;;;17.97;;
9372;SDS011;10838;52.350;9.790;2023-05-23T02:27:51;18.60;;;16.70;;
9372;SDS011;10838;52.350;9.790;2023-05-23T02:30:18;18.50;;;16.67;;
9372;SDS011;10838;52.350;9.790;2023-05-23T02:32:44;18.83;;;16.67;;
9372;SDS011;10838;52.350;9.790;2023-05-23T02:35:11;20.17;;;16.70;;
9372;SDS011;10838;52.350;9.790;2023-05-23T02:37:39;19.00;;;17.27;;
9372;SDS011;10838;52.350;9.790;2023-05-23T02:40:06;19.53;;;16.37;;
9372;SDS011;10838;52.350;9.790;2023-05-23T02:42:34;17.50;;;15.07;;
9372;SDS011;10838;52.350;9.790;2023-05-23T02:45:01;16.30;;;14.70;;
9372;SDS011;10838;52.350;9.790;2023-05-23T02:47:27;17.77;;;15.83;;
9372;SDS011;10838;52.350;9.790;2023-05-23T02:49:54;16.03;;;14.43;;
9372;SDS011;10838;52.350;9.790;2023-05-23T02:52:20;18.10;;;13.93;;
9372;SDS011;10838;52.350;9.790;2023-05-23T02:54:49;15.73;;;14.13;;
9372;SDS011;10838;52.350;9.790;2023-05-23T02:57:15;17.13;;;13.80;;
9372;SDS011;10838;52.350;9.790;2023-05-23T02:59:42;15.27;;;13.67;;
9372;SDS011;10838;52.350;9.790;2023-05-23T03:02:08;14.77;;;13.37;;
9372;SDS011;10838;52.350;9.790;2023-05-23T03:04:35;15.33;;;13.43;;
9372;SDS011;10838;52.350;9.790;2023-05-23T03:07:02;15.93;;;14.13;;
9372;SDS011;10838;52.350;9.790;2023-05-23T03:09:30;16.67;;;14.20;;
9372;SDS011;10838;52.350;9.790;2023-05-23T03:11:58;15.70;;;13.87;;
9372;SDS011;10838;52.350;9.790;2023-05-23T03:14:25;16.30;;;14.67;;
9372;SDS011;10838;52.350;9.790;2023-05-23T03:16:51;16.13;;;14.53;;
9372;SDS011;10838;52.350;9.790;2023-05-23T03:19:18;19.53;;;15.93;;
9372;SDS011;10838;52.350;9.790;2023-05-23T03:21:44;17.97;;;16.27;;
9372;SDS011;10838;52.350;9.790;2023-05-23T03:24:11;18.23;;;14.70;;
9372;SDS011;10838;52.350;9.790;2023-05-23T03:26:38;19.50;;;15.90;;
9372;SDS011;10838;52.350;9.790;2023-05-23T03:29:06;20.00;;;15.93;;
9372;SDS011;10838;52.350;9.790;2023-05-23T03:31:34;19.27;;;17.27;;
9372;SDS011;10838;52.350;9.790;2023-05-23T03:34:01;19.93;;;17.77;;
9372;SDS011;10838;52.350;9.790;2023-05-23T03:36:29;21.13;;;17.57;;
9372;SDS011;10838;52.350;9.790;2023-05-23T03:38:57;21.03;;;18.23;;
9372;SDS011;10838;52.350;9.790;2023-05-23T03:41:23;22.87;;;18.70;;
9372;SDS011;10838;52.350;9.790;2023-05-23T03:43:51;19.63;;;17.63;;
9372;SDS011;10838;52.350;9.790;2023-05-23T03:46:19;20.70;;;18.50;;
9372;SDS011;10838;52.350;9.790;2023-05-23T03:48:45;20.90;;;18.13;;
9372;SDS011;10838;52.350;9.790;2023-05-23T03:51:12;20.90;;;18.00;;
9372;SDS011;10838;52.350;9.790;2023-05-23T03:53:38;19.33;;;17.20;;
9372;SDS011;10838;52.350;9.790;2023-05-23T03:56:05;20.53;;;18.33;;
9372;SDS011;10838;52.350;9.790;2023-05-23T03:58:32;20.23;;;18.20;;
9372;SDS011;10838;52.350;9.790;2023-05-23T04:00:58;19.37;;;17.43;;
9372;SDS011;10838;52.350;9.790;2023-05-23T04:03:27;21.80;;;17.13;;
9372;SDS011;10838;52.350;9.790;2023-05-23T04:05:56;20.77;;;17.80;;
9372;SDS011;10838;52.350;9.790;2023-05-23T04:08:23;18.50;;;15.70;;
9372;SDS011;10838;52.350;9.790;2023-05-23T04:10:49;17.03;;;15.43;;
9372;SDS011;10838;52.350;9.790;2023-05-23T04:13:16;18.93;;;15.97;;
9372;SDS011;10838;52.350;9.790;2023-05-23T04:15:42;17.23;;;15.53;;
9372;SDS011;10838;52.350;9.790;2023-05-23T04:18:09;16.97;;;15.40;;
9372;SDS011;10838;52.350;9.790;2023-05-23T04:20:37;18.27;;;14.97;;
9372;SDS011;10838;52.350;9.790;2023-05-23T04:23:04;16.63;;;14.47;;
9372;SDS011;10838;52.350;9.790;2023-05-23T04:25:30;14.73;;;13.23;;
9372;SDS011;10838;52.350;9.790;2023-05-23T04:27:58;15.17;;;13.17;;
9372;SDS011;10838;52.350;9.790;2023-05-23T04:30:25;14.37;;;12.83;;
9372;SDS011;10838;52.350;9.790;2023-05-23T04:32:54;12.87;;;11.67;;
9372;SDS011;10838;52.350;9.790;2023-05-23T04:35:22;12.70;;;11.40;;
9372;SDS011;10838;52.350;9.790;2023-05-23T04:37:50;13.20;;;11.90;;
9372;SDS011;10838;52.350;9.790;2023-05-23T04:40:20;12.77;;;11.47;;
9372;SDS011;10838;52.350;9.790;2023-05-23T04:42:47;12.80;;;11.47;;
9372;SDS011;10838;52.350;9.790;2023-05-23T04:45:14;11.93;;;10.83;;
9372;SDS011;10838;52.350;9.790;2023-05-23T04:47:40;12.03;;;10.83;;
9372;SDS011;10838;52.350;9.790;2023-05-23T04:50:09;12.73;;;11.43;;
9372;SDS011;10838;52.350;9.790;2023-05-23T04:52:36;11.50;;;10.47;;
9372;SDS011;10838;52.350;9.790;2023-05-23T04:55:04;12.40;;;11.10;;
9372;SDS011;10838;52.350;9.790;2023-05-23T04:57:32;13.63;;;10.60;;
9372;SDS011;10838;52.350;9.790;2023-05-23T04:59:59;11.27;;;10.17;;
9372;SDS011;10838;52.350;9.790;2023-05-23T05:02:26;11.37;;;10.13;;
9372;SDS011;10838;52.350;9.790;2023-05-23T05:04:52;12.60;;;10.63;;
9372;SDS011;10838;52.350;9.790;2023-05-23T05:07:19;11.00;;;10.00;;
9372;SDS011;10838;52.350;9.790;2023-05-23T05:09:45;11.53;;;9.70;;
9372;SDS011;10838;52.350;9.790;2023-05-23T05:12:13;17.07;;;10.60;;
9372;SDS011;10838;52.350;9.790;2023-05-23T05:14:40;11.30;;;9.70;;
9372;SDS011;10838;52.350;9.790;2023-05-23T05:17:06;10.77;;;9.63;;
9372;SDS011;10838;52.350;9.790;2023-05-23T05:19:33;10.70;;;9.60;;
9372;SDS011;10838;52.350;9.790;2023-05-23T05:21:59;11.40;;;9.67;;
9372;SDS011;10838;52.350;9.790;2023-05-23T05:24:26;11.80;;;10.70;;
9372;SDS011;10838;52.350;9.790;2023-05-23T05:26:52;12.80;;;10.53;;
9372;SDS011;10838;52.350;9.790;2023-05-23T05:29:21;11.13;;;9.70;;
9372;SDS011;10838;52.350;9.790;2023-05-23T05:31:47;12.33;;;10.13;;
9372;SDS011;10838;52.350;9.790;2023-05-23T05:34:14;11.33;;;9.67;;
9372;SDS011;10838;52.350;9.790;2023-05-23T05:36:40;12.17;;;8.83;;
9372;SDS011;10838;52.350;9.790;2023-05-23T05:39:10;10.67;;;8.83;;
9372;SDS011;10838;52.350;9.790;2023-05-23T05:41:37;25.17;;;10.23;;
9372;SDS011;10838;52.350;9.790;2023-05-23T05:44:04;10.43;;;9.23;;
9372;SDS011;10838;52.350;9.790;2023-05-23T05:46:32;11.77;;;9.23;;
9372;SDS011;10838;52.350;9.790;2023-05-23T05:48:59;10.50;;;8.93;;
9372;SDS011;10838;52.350;9.790;2023-05-23T05:51:25;10.20;;;9.13;;
9372;SDS011;10838;52.350;9.790;2023-05-23T05:53:52;9.57;;;8.57;;
9372;SDS011;10838;52.350;9.790;2023-05-23T05:56:18;9.40;;;8.40;;
9372;SDS011;10838;52.350;9.790;2023-05-23T05:58:46;9.37;;;8.47;;
9372;SDS011;10838;52.350;9.790;2023-05-23T06:01:13;8.93;;;8.00;;
9372;SDS011;10838;52.350;9.790;2023-05-23T06:03:40;8.17;;;7.47;;
9372;SDS011;10838;52.350;9.790;2023-05-23T06:06:07;8.40;;;7.60;;
9372;SDS011;10838;52.350;9.790;2023-05-23T06:08:34;7.93;;;7.23;;
9372;SDS011;10838;52.350;9.790;2023-05-23T06:11:00;8.87;;;7.93;;
9372;SDS011;10838;52.350;9.790;2023-05-23T06:13:27;9.13;;;7.93;;
9372;SDS011;10838;52.350;9.790;2023-05-23T06:15:53;11.50;;;8.23;;
9372;SDS011;10838;52.350;9.790;2023-05-23T06:18:20;9.27;;;8.40;;
9372;SDS011;10838;52.350;9.790;2023-05-23T06:20:48;9.27;;;8.40;;
9372;SDS011;10838;52.350;9.790;2023-05-23T06:23:15;10.30;;;9.20;;
9372;SDS011;10838;52.350;9.790;2023-05-23T06:25:41;10.77;;;9.23;;
9372;SDS011;10838;52.350;9.790;2023-05-23T06:28:08;10.40;;;9.50;;
9372;SDS011;10838;52.350;9.790;2023-05-23T06:30:34;10.53;;;9.47;;
9372;SDS011;10838;52.350;9.790;2023-05-23T06:33:03;10.97;;;9.97;;
9372;SDS011;10838;52.350;9.790;2023-05-23T06:35:30;10.73;;;9.70;;
9372;SDS011;10838;52.350;9.790;2023-05-23T06:37:58;14.07;;;10.67;;
9372;SDS011;10838;52.350;9.790;2023-05-23T06:40:24;11.13;;;9.50;;
9372;SDS011;10838;52.350;9.790;2023-05-23T06:42:51;11.10;;;9.90;;
9372;SDS011;10838;52.350;9.790;2023-05-23T06:45:18;9.60;;;8.70;;
9372;SDS011;10838;52.350;9.790;2023-05-23T06:47:44;10.13;;;7.60;;
9372;SDS011;10838;52.350;9.790;2023-05-23T06:50:12;7.80;;;7.17;;
9372;SDS011;10838;52.350;9.790;2023-05-23T06:52:38;7.80;;;7.00;;
9372;SDS011;10838;52.350;9.790;2023-05-23T06:55:08;7.90;;;7.10;;
9372;SDS011;10838;52.350;9.790;2023-05-23T06:57:38;7.73;;;7.03;;
9372;SDS011;10838;52.350;9.790;2023-05-23T07:00:05;8.00;;;6.83;;
9372;SDS011;10838;52.350;9.790;2023-05-23T07:02:32;10.53;;;7.13;;
9372;SDS011;10838;52.350;9.790;2023-05-23T07:04:59;8.87;;;6.67;;
9372;SDS011;10838;52.350;9.790;2023-05-23T07:07:25;6.23;;;5.63;;
9372;SDS011;10838;52.350;9.790;2023-05-23T07:09:52;7.47;;;6.20;;
9372;SDS011;10838;52.350;9.790;2023-05-23T07:12:20;6.93;;;6.33;;
9372;SDS011;10838;52.350;9.790;2023-05-23T07:14:46;6.43;;;5.83;;
9372;SDS011;10838;52.350;9.790;2023-05-23T07:17:13;6.27;;;5.70;;
9372;SDS011;10838;52.350;9.790;2023-05-23T07:19:40;6.10;;;5.57;;
9372;SDS011;10838;52.350;9.790;2023-05-23T07:22:06;6.10;;;5.60;;
9372;SDS011;10838;52.350;9.790;2023-05-23T07:24:33;6.90;;;5.10;;
9372;SDS011;10838;52.350;9.790;2023-05-23T07:27:01;6.57;;;6.00;;
9372;SDS011;10838;52.350;9.790;2023-05-23T07:29:28;6.23;;;5.60;;
9372;SDS011;10838;52.350;9.790;2023-05-23T07:31:56;5.53;;;5.13;;
9372;SDS011;10838;52.350;9.790;2023-05-23T07:34:23;6.13;;;5.53;;
9372;SDS011;10838;52.350;9.790;2023-05-23T07:36:50;5.20;;;4.90;;
9372;SDS011;10838;52.350;9.790;2023-05-23T07:39:17;6.20;;;4.13;;
9372;SDS011;10838;52.350;9.790;2023-05-23T07:41:46;4.60;;;4.20;;
9372;SDS011;10838;52.350;9.790;2023-05-23T07:44:12;5.57;;;4.00;;
9372;SDS011;10838;52.350;9.790;2023-05-23T07:46:41;4.73;;;4.33;;
9372;SDS011;10838;52.350;9.790;2023-05-23T07:49:07;4.60;;;4.30;;
9372;SDS011;10838;52.350;9.790;2023-05-23T07:51:34;5.10;;;4.60;;
9372;SDS011;10838;52.350;9.790;2023-05-23T07:54:00;4.90;;;4.23;;
9372;SDS011;10838;52.350;9.790;2023-05-23T07:56:27;5.07;;;4.67;;
9372;SDS011;10838;52.350;9.790;2023-05-23T07:58:54;4.53;;;4.23;;
9372;SDS011;10838;52.350;9.790;2023-05-23T08:01:20;6.07;;;4.90;;
9372;SDS011;10838;52.350;9.790;2023-05-23T08:03:50;5.97;;;4.87;;
9372;SDS011;10838;52.350;9.790;2023-05-23T08:06:16;6.53;;;5.30;;
9372;SDS011;10838;52.350;9.790;2023-05-23T08:08:43;8.33;;;5.60;;
9372;SDS011;10838;52.350;9.790;2023-05-23T08:11:10;5.97;;;5.47;;
9372;SDS011;10838;52.350;9.790;2023-05-23T08:13:36;6.67;;;5.80;;
9372;SDS011;10838;52.350;9.790;2023-05-23T08:16:03;7.60;;;6.63;;
9372;SDS011;10838;52.350;9.790;2023-05-23T08:18:29;7.90;;;6.40;;
9372;SDS011;10838;52.350;9.790;2023-05-23T08:20:57;7.43;;;6.60;;
9372;SDS011;10838;52.350;9.790;2023-05-23T08:23:27;11.57;;;6.97;;
9372;SDS011;10838;52.350;9.790;2023-05-23T08:25:53;11.27;;;7.67;;
9372;SDS011;10838;52.350;9.790;2023-05-23T08:28:21;12.97;;;7.53;;
9372;SDS011;10838;52.350;9.790;2023-05-23T08:30:47;9.87;;;8.13;;
9372;SDS011;10838;52.350;9.790;2023-05-23T08:33:14;13.73;;;8.43;;
9372;SDS011;10838;52.350;9.790;2023-05-23T08:35:41;11.73;;;8.33;;
9372;SDS011;10838;52.350;9.790;2023-05-23T08:38:08;12.97;;;8.07;;
9372;SDS011;10838;52.350;9.790;2023-05-23T08:40:35;12.13;;;7.70;;
9372;SDS011;10838;52.350;9.790;2023-05-23T08:43:02;7.83;;;6.93;;
9372;SDS011;10838;52.350;9.790;2023-05-23T08:45:29;13.73;;;7.77;;
9372;SDS011;10838;52.350;9.790;2023-05-23T08:47:56;10.83;;;7.90;;
9372;SDS011;10838;52.350;9.790;2023-05-23T08:50:26;11.27;;;7.33;;
9372;SDS011;10838;52.350;9.790;2023-05-23T08:52:55;12.70;;;7.70;;
9372;SDS011;10838;52.350;9.790;2023-05-23T08:55:25;9.90;;;6.97;;
9372;SDS011;10838;52.350;9.790;2023-05-23T08:57:53;9.77;;;6.90;;
9372;SDS011;10838;52.350;9.790;2023-05-23T09:00:20;11.27;;;7.10;;
9372;SDS011;10838;52.350;9.790;2023-05-23T09:02:47;8.23;;;6.93;;
9372;SDS011;10838;52.350;9.790;2023-05-23T09:05:14;11.40;;;7.93;;
9372;SDS011;10838;52.350;9.790;2023-05-23T09:07:41;9.63;;;8.00;;
9372;SDS011;10838;52.350;9.790;2023-05-23T09:10:12;11.87;;;8.83;;
9372;SDS011;10838;52.350;9.790;2023-05-23T09:12:42;18.37;;;9.40;;
9372;SDS011;10838;52.350;9.790;2023-05-23T09:15:09;15.33;;;9.37;;
9372;SDS011;10838;52.350;9.790;2023-05-23T09:17:37;16.60;;;9.10;;
9372;SDS011;10838;52.350;9.790;2023-05-23T09:20:07;14.60;;;9.10;;
9372;SDS011;10838;52.350;9.790;2023-05-23T09:22:37;14.63;;;9.67;;
9372;SDS011;10838;52.350;9.790;2023-05-23T09:25:03;17.20;;;10.87;;
9372;SDS011;10838;52.350;9.790;2023-05-23T09:27:30;14.77;;;10.60;;
9372;SDS011;10838;52.350;9.790;2023-05-23T09:29:58;19.27;;;11.40;;
9372;SDS011;10838;52.350;9.790;2023-05-23T09:32:31;20.20;;;11.70;;
9372;SDS011;10838;52.350;9.790;2023-05-23T09:34:58;16.87;;;10.60;;
9372;SDS011;10838;52.350;9.790;2023-05-23T09:37:28;17.13;;;10.80;;
9372;SDS011;10838;52.350;9.790;2023-05-23T09:39:57;14.53;;;10.60;;
9372;SDS011;10838;52.350;9.790;2023-05-23T09:42:24;19.27;;;10.10;;
9372;SDS011;10838;52.350;9.790;2023-05-23T09:44:57;19.70;;;10.57;;
9372;SDS011;10838;52.350;9.790;2023-05-23T09:47:25;16.13;;;10.17;;
9372;SDS011;10838;52.350;9.790;2023-05-23T09:49:52;15.87;;;9.17;;
9372;SDS011;10838;52.350;9.790;2023-05-23T09:52:18;17.17;;;9.47;;
9372;SDS011;10838;52.350;9.790;2023-05-23T09:54:45;12.93;;;10.00;;
9372;SDS011;10838;52.350;9.790;2023-05-23T09:57:13;14.73;;;11.07;;
9372;SDS011;10838;52.350;9.790;2023-05-23T09:59:41;16.70;;;11.03;;
9372;SDS011;10838;52.350;9.790;2023-05-23T10:02:23;20.83;;;11.83;;
9372;SDS011;10838;52.350;9.790;2023-05-23T10:05:21;15.73;;;11.37;;
9372;SDS011;10838;52.350;9.790;2023-05-23T10:07:57;14.37;;;12.20;;
9372;SDS011;10838;52.350;9.790;2023-05-23T10:10:26;14.80;;;12.30;;
9372;SDS011;10838;52.350;9.790;2023-05-23T10:12:56;17.23;;;11.57;;
9372;SDS011;10838;52.350;9.790;2023-05-23T10:15:25;13.03;;;6.90;;
9372;SDS011;10838;52.350;9.790;2023-05-23T10:18:02;5.17;;;4.37;;
9372;SDS011;10838;52.350;9.790;2023-05-23T10:20:32;5.37;;;3.70;;
9372;SDS011;10838;52.350;9.790;2023-05-23T10:23:01;4.83;;;4.17;;
9372;SDS011;10838;52.350;9.790;2023-05-23T10:25:29;7.37;;;4.97;;
9372;SDS011;10838;52.350;9.790;2023-05-23T10:27:56;9.20;;;5.40;;
9372;SDS011;10838;52.350;9.790;2023-05-23T10:30:24;5.97;;;5.30;;
9372;SDS011;10838;52.350;9.790;2023-05-23T10:32:51;10.53;;;5.57;;
9372;SDS011;10838;52.350;9.790;2023-05-23T10:35:21;10.00;;;5.73;;
9372;SDS011;10838;52.350;9.790;2023-05-23T10:37:54;7.50;;;5.80;;
9372;SDS011;10838;52.350;9.790;2023-05-23T10:40:26;8.33;;;6.03;;
9372;SDS011;10838;52.350;9.790;2023-05-23T10:43:00;9.97;;;5.57;;
9372;SDS011;10838;52.350;9.790;2023-05-23T10:45:30;10.73;;;6.17;;
9372;SDS011;10838;52.350;9.790;2023-05-23T10:48:15;11.23;;;6.10;;
9372;SDS011;10838;52.350;9.790;2023-05-23T10:50:47;9.50;;;7.43;;
9372;SDS011;10838;52.350;9.790;2023-05-23T10:53:28;13.27;;;8.17;;
9372;SDS011;10838;52.350;9.790;2023-05-23T10:55:55;15.73;;;8.07;;
9372;SDS011;10838;52.350;9.790;2023-05-23T10:58:22;17.43;;;8.83;;
9372;SDS011;10838;52.350;9.790;2023-05-23T11:00:51;14.57;;;8.37;;
9372;SDS011;10838;52.350;9.790;2023-05-23T11:03:29;17.47;;;9.27;;
9372;SDS011;10838;52.350;9.790;2023-05-23T11:05:59;16.40;;;9.17;;
9372;SDS011;10838;52.350;9.790;2023-05-23T11:08:26;25.37;;;10.20;;
9372;SDS011;10838;52.350;9.790;2023-05-23T11:10:55;20.17;;;10.37;;
9372;SDS011;10838;52.350;9.790;2023-05-23T11:13:24;17.17;;;10.33;;
9372;SDS011;10838;52.350;9.790;2023-05-23T11:15:51;19.57;;;10.17;;
9372;SDS011;10838;52.350;9.790;2023-05-23T11:18:21;23.90;;;10.67;;
9372;SDS011;10838;52.350;9.790;2023-05-23T11:20:51;18.73;;;9.97;;
9372;SDS011;10838;52.350;9.790;2023-05-23T11:23:20;18.70;;;9.13;;
9372;SDS011;10838;52.350;9.790;2023-05-23T11:25:48;14.63;;;8.83;;
9372;SDS011;10838;52.350;9.790;2023-05-23T11:28:16;21.57;;;9.47;;
9372;SDS011;10838;52.350;9.790;2023-05-23T11:30:43;16.63;;;9.10;;
9372;SDS011;10838;52.350;9.790;2023-05-23T11:33:13;19.10;;;9.57;;
9372;SDS011;10838;52.350;9.790;2023-05-23T11:35:41;20.07;;;9.50;;
9372;SDS011;10838;52.350;9.790;2023-05-23T11:38:08;19.33;;;8.87;;
9372;SDS011;10838;52.350;9.790;2023-05-23T11:40:37;15.53;;;7.87;;
9372;SDS011;10838;52.350;9.790;2023-05-23T11:43:05;16.63;;;8.33;;
9372;SDS011;10838;52.350;9.790;2023-05-23T11:45:33;14.23;;;8.60;;
9372;SDS011;10838;52.350;9.790;2023-05-23T11:48:04;17.27;;;7.60;;
9372;SDS011;10838;52.350;9.790;2023-05-23T11:50:32;16.93;;;6.83;;
9372;SDS011;10838;52.350;9.790;2023-05-23T11:52:59;17.37;;;7.13;;
9372;SDS011;10838;52.350;9.790;2023-05-23T11:55:25;14.47;;;7.27;;
9372;SDS011;10838;52.350;9.790;2023-05-23T11:57:55;15.57;;;7.07;;
9372;SDS011;10838;52.350;9.790;2023-05-23T12:00:22;15.40;;;7.50;;
9372;SDS011;10838;52.350;9.790;2023-05-23T12:02:49;12.63;;;7.33;;
9372;SDS011;10838;52.350;9.790;2023-05-23T12:05:15;13.67;;;6.20;;
9372;SDS011;10838;52.350;9.790;2023-05-23T12:07:42;13.40;;;5.93;;
9372;SDS011;10838;52.350;9.790;2023-05-23T12:10:10;18.67;;;6.33;;
9372;SDS011;10838;52.350;9.790;2023-05-23T12:12:37;12.00;;;5.60;;
9372;SDS011;10838;52.350;9.790;2023-05-23T12:15:05;18.70;;;6.13;;
9372;SDS011;10838;52.350;9.790;2023-05-23T12:17:33;15.33;;;5.47;;
9372;SDS011;10838;52.350;9.790;2023-05-23T12:20:00;18.80;;;5.47;;
9372;SDS011;10838;52.350;9.790;2023-05-23T12:22:28;14.60;;;5.13;;
9372;SDS011;10838;52.350;9.790;2023-05-23T12:24:54;17.57;;;5.13;;
9372;SDS011;10838;52.350;9.790;2023-05-23T12:27:25;17.87;;;5.77;;
9372;SDS011;10838;52.350;9.790;2023-05-23T12:30:03;17.53;;;6.03;;
9372;SDS011;10838;52.350;9.790;2023-05-23T12:32:33;12.27;;;5.10;;
9372;SDS011;10838;52.350;9.790;2023-05-23T12:35:00;12.70;;;5.03;;
9372;SDS011;10838;52.350;9.790;2023-05-23T12:37:26;16.73;;;5.10;;
9372;SDS011;10838;52.350;9.790;2023-05-23T12:39:54;13.27;;;5.43;;
9372;SDS011;10838;52.350;9.790;2023-05-23T12:42:21;12.00;;;5.00;;
9372;SDS011;10838;52.350;9.790;2023-05-23T12:44:50;14.23;;;5.60;;
9372;SDS011;10838;52.350;9.790;2023-05-23T12:47:18;11.43;;;4.77;;
9372;SDS011;10838;52.350;9.790;2023-05-23T12:49:44;15.23;;;4.60;;
9372;SDS011;10838;52.350;9.790;2023-05-23T12:52:12;12.60;;;4.20;;
9372;SDS011;10838;52.350;9.790;2023-05-23T12:54:38;9.87;;;3.73;;
9372;SDS011;10838;52.350;9.790;2023-05-23T12:57:05;18.00;;;4.23;;
9372;SDS011;10838;52.350;9.790;2023-05-23T12:59:31;13.13;;;3.87;;
9372;SDS011;10838;52.350;9.790;2023-05-23T13:01:58;12.53;;;4.00;;
9372;SDS011;10838;52.350;9.790;2023-05-23T13:04:26;11.20;;;3.83;;
9372;SDS011;10838;52.350;9.790;2023-05-23T13:06:53;14.40;;;3.80;;
9372;SDS011;10838;52.350;9.790;2023-05-23T13:09:20;17.00;;;4.20;;
9372;SDS011;10838;52.350;9.790;2023-05-23T13:11:46;15.27;;;3.97;;
9372;SDS011;10838;52.350;9.790;2023-05-23T13:14:13;11.20;;;3.70;;
9372;SDS011;10838;52.350;9.790;2023-05-23T13:16:39;11.00;;;3.70;;
9372;SDS011;10838;52.350;9.790;2023-05-23T13:19:07;10.97;;;3.63;;
9372;SDS011;10838;52.350;9.790;2023-05-23T13:21:34;12.10;;;4.00;;
9372;SDS011;10838;52.350;9.790;2023-05-23T13:24:01;11.80;;;3.40;;
9372;SDS011;10838;52.350;9.790;2023-05-23T13:26:28;12.87;;;3.70;;
9372;SDS011;10838;52.350;9.790;2023-05-23T13:28:54;12.17;;;3.70;;
9372;SDS011;10838;52.350;9.790;2023-05-23T13:31:21;14.43;;;4.10;;
9372;SDS011;10838;52.350;9.790;2023-05-23T13:33:47;22.40;;;4.57;;
9372;SDS011;10838;52.350;9.790;2023-05-23T13:36:14;14.10;;;4.27;;
9372;SDS011;10838;52.350;9.790;2023-05-23T13:38:42;9.60;;;3.80;;
9372;SDS011;10838;52.350;9.790;2023-05-23T13:41:08;15.60;;;4.13;;
9372;SDS011;10838;52.350;9.790;2023-05-23T13:43:35;14.27;;;5.27;;
9372;SDS011;10838;52.350;9.790;2023-05-23T13:46:01;10.83;;;3.90;;
9372;SDS011;10838;52.350;9.790;2023-05-23T13:48:28;14.03;;;4.03;;
9372;SDS011;10838;52.350;9.790;2023-05-23T13:50:54;13.87;;;4.33;;
9372;SDS011;10838;52.350;9.790;2023-05-23T13:53:21;15.60;;;4.23;;
9372;SDS011;10838;52.350;9.790;2023-05-23T13:55:49;12.80;;;4.70;;
9372;SDS011;10838;52.350;9.790;2023-05-23T13:58:16;12.40;;;4.10;;
9372;SDS011;10838;52.350;9.790;2023-05-23T14:00:42;11.73;;;4.67;;
9372;SDS011;10838;52.350;9.790;2023-05-23T14:03:10;14.93;;;4.17;;
9372;SDS011;10838;52.350;9.790;2023-05-23T14:05:36;11.53;;;4.63;;
9372;SDS011;10838;52.350;9.790;2023-05-23T14:08:03;14.03;;;4.77;;
9372;SDS011;10838;52.350;9.790;2023-05-23T14:10:30;12.70;;;4.30;;
9372;SDS011;10838;52.350;9.790;2023-05-23T14:12:59;13.17;;;4.60;;
9372;SDS011;10838;52.350;9.790;2023-05-23T14:15:26;14.67;;;4.30;;
9372;SDS011;10838;52.350;9.790;2023-05-23T14:17:52;17.43;;;5.20;;
9372;SDS011;10838;52.350;9.790;2023-05-23T14:20:20;13.33;;;5.17;;
9372;SDS011;10838;52.350;9.790;2023-05-23T14:22:46;13.57;;;4.73;;
9372;SDS011;10838;52.350;9.790;2023-05-23T14:25:13;14.63;;;4.57;;
9372;SDS011;10838;52.350;9.790;2023-05-23T14:27:40;15.53;;;5.73;;
9372;SDS011;10838;52.350;9.790;2023-05-23T14:30:08;16.93;;;5.57;;
9372;SDS011;10838;52.350;9.790;2023-05-23T14:32:35;13.77;;;4.70;;
9372;SDS011;10838;52.350;9.790;2023-05-23T14:35:03;11.07;;;4.50;;
9372;SDS011;10838;52.350;9.790;2023-05-23T14:37:31;8.13;;;4.30;;
9372;SDS011;10838;52.350;9.790;2023-05-23T14:39:57;13.57;;;4.70;;
9372;SDS011;10838;52.350;9.790;2023-05-23T14:42:24;13.80;;;4.30;;
9372;SDS011;10838;52.350;9.790;2023-05-23T14:44:51;7.70;;;3.60;;
9372;SDS011;10838;52.350;9.790;2023-05-23T14:47:19;12.77;;;4.03;;
9372;SDS011;10838;52.350;9.790;2023-05-23T14:49:46;11.57;;;4.07;;